sensor_id;sensor_type;location;lat;lon;timestamp;pressure;altitude;pressure_sealevel;temperature;humidity
15529;BME280;7866;52.280;9.500;2023-05-16T00:04:02;100188.91;;;11.77;78.57
15529;BME280;7866;52.280;9.500;2023-05-16T00:09:03;100189.69;;;11.63;78.46
15529;BME280;7866;52.280;9.500;2023-05-16T00:14:06;100195.47;;;11.51;78.60
15529;BME280;7866;52.280;9.500;2023-05-16T00:19:08;100189.50;;;11.64;79.16
15529;BME280;7866;52.280;9.500;2023-05-16T00:24:10;100188.44;;;11.50;78.75
15529;BME280;7866;52.280;9.500;2023-05-16T00:29:13;100191.19;;;11.42;80.61
15529;BME280;7866;52.280;9.500;2023-05-16T00:34:14;100183.94;;;11.20;80.64
15529;BME280;7866;52.280;9.500;2023-05-16T00:39:16;100191.59;;;11.31;81.58
15529;BME280;7866;52.280;9.500;2023-05-16T00:44:19;100187.47;;;11.43;80.91
15529;BME280;7866;52.280;9.500;2023-05-16T00:49:21;100196.19;;;11.45;81.03
15529;BME280;7866;52.280;9.500;2023-05-16T00:54:22;100182.13;;;11.66;79.72
15529;BME280;7866;52.280;9.500;2023-05-16T00:59:27;100181.75;;;11.92;79.18
15529;BME280;7866;52.280;9.500;2023-05-16T01:04:29;100184.41;;;11.92;77.57
15529;BME280;7866;52.280;9.500;2023-05-16T01:09:50;100194.91;;;11.79;77.80
15529;BME280;7866;52.280;9.500;2023-05-16T01:14:59;100202.91;;;11.64;79.16
15529;BME280;7866;52.280;9.500;2023-05-16T01:20:09;100207.16;;;11.58;79.97
15529;BME280;7866;52.280;9.500;2023-05-16T01:25:21;100205.66;;;11.79;79.55
15529;BME280;7866;52.280;9.500;2023-05-16T01:30:32;100210.13;;;11.64;79.30
15529;BME280;7866;52.280;9.500;2023-05-16T01:35:39;100200.28;;;11.56;78.81
15529;BME280;7866;52.280;9.500;2023-05-16T01:40:47;100189.50;;;11.41;78.78
15529;BME280;7866;52.280;9.500;2023-05-16T01:45:57;100185.88;;;11.57;78.76
15529;BME280;7866;52.280;9.500;2023-05-16T01:51:01;100193.81;;;11.73;77.87
15529;BME280;7866;52.280;9.500;2023-05-16T01:56:08;100196.25;;;11.83;78.22
15529;BME280;7866;52.280;9.500;2023-05-16T02:01:12;100206.47;;;11.56;78.03
15529;BME280;7866;52.280;9.500;2023-05-16T02:06:14;100213.47;;;11.66;77.74
15529;BME280;7866;52.280;9.500;2023-05-16T02:11:16;100211.84;;;11.56;77.27
15529;BME280;7866;52.280;9.500;2023-05-16T02:16:18;100219.91;;;11.33;78.46
15529;BME280;7866;52.280;9.500;2023-05-16T02:21:20;100222.53;;;11.42;78.64
15529;BME280;7866;52.280;9.500;2023-05-16T02:26:22;100224.19;;;11.43;77.28
15529;BME280;7866;52.280;9.500;2023-05-16T02:31:29;100214.97;;;11.45;76.94
15529;BME280;7866;52.280;9.500;2023-05-16T02:36:30;100209.66;;;11.37;77.11
15529;BME280;7866;52.280;9.500;2023-05-16T02:41:33;100226.13;;;11.49;77.54
15529;BME280;7866;52.280;9.500;2023-05-16T02:46:36;100228.03;;;11.40;77.40
15529;BME280;7866;52.280;9.500;2023-05-16T02:51:38;100239.50;;;11.34;77.24
15529;BME280;7866;52.280;9.500;2023-05-16T02:56:39;100239.63;;;11.09;79.31
15529;BME280;7866;52.280;9.500;2023-05-16T03:01:42;100233.22;;;11.19;78.94
15529;BME280;7866;52.280;9.500;2023-05-16T03:06:44;100243.06;;;11.26;80.21
15529;BME280;7866;52.280;9.500;2023-05-16T03:11:46;100244.69;;;10.96;81.38
15529;BME280;7866;52.280;9.500;2023-05-16T03:16:49;100238.16;;;10.99;82.61
15529;BME280;7866;52.280;9.500;2023-05-16T03:21:51;100245.06;;;10.93;81.80
15529;BME280;7866;52.280;9.500;2023-05-16T03:26:52;100255.47;;;10.80;82.25
15529;BME280;7866;52.280;9.500;2023-05-16T03:31:56;100251.78;;;10.89;82.10
15529;BME280;7866;52.280;9.500;2023-05-16T03:36:57;100254.31;;;10.82;81.54
15529;BME280;7866;52.280;9.500;2023-05-16T03:41:59;100256.47;;;10.87;81.07
15529;BME280;7866;52.280;9.500;2023-05-16T03:47:02;100265.28;;;10.96;80.31
15529;BME280;7866;52.280;9.500;2023-05-16T03:52:04;100273.22;;;10.89;79.89
15529;BME280;7866;52.280;9.500;2023-05-16T03:57:06;100276.72;;;10.90;80.24
15529;BME280;7866;52.280;9.500;2023-05-16T04:02:10;100274.34;;;10.95;79.75
15529;BME280;7866;52.280;9.500;2023-05-16T04:07:11;100280.53;;;10.95;80.44
15529;BME280;7866;52.280;9.500;2023-05-16T04:12:13;100278.13;;;11.08;79.96
15529;BME280;7866;52.280;9.500;2023-05-16T04:17:16;100281.75;;;10.84;79.59
15529;BME280;7866;52.280;9.500;2023-05-16T04:22:19;100278.56;;;10.81;79.08
15529;BME280;7866;52.280;9.500;2023-05-16T04:27:21;100299.00;;;10.90;79.21
15529;BME280;7866;52.280;9.500;2023-05-16T04:32:24;100306.50;;;10.95;78.67
15529;BME280;7866;52.280;9.500;2023-05-16T04:37:28;100303.91;;;10.70;78.26
15529;BME280;7866;52.280;9.500;2023-05-16T04:42:30;100316.94;;;10.81;77.77
15529;BME280;7866;52.280;9.500;2023-05-16T04:47:33;100327.41;;;10.99;77.27
15529;BME280;7866;52.280;9.500;2023-05-16T04:52:35;100340.19;;;10.89;77.66
15529;BME280;7866;52.280;9.500;2023-05-16T04:57:37;100346.41;;;10.73;78.01
15529;BME280;7866;52.280;9.500;2023-05-16T05:02:40;100347.09;;;10.51;77.79
15529;BME280;7866;52.280;9.500;2023-05-16T05:07:42;100355.47;;;10.56;77.48
15529;BME280;7866;52.280;9.500;2023-05-16T05:12:44;100366.00;;;10.74;77.56
15529;BME280;7866;52.280;9.500;2023-05-16T05:17:47;100367.66;;;10.75;76.54
15529;BME280;7866;52.280;9.500;2023-05-16T05:22:49;100361.16;;;10.69;76.68
15529;BME280;7866;52.280;9.500;2023-05-16T05:27:50;100383.25;;;10.63;76.05
15529;BME280;7866;52.280;9.500;2023-05-16T05:32:53;100391.78;;;10.75;75.62
15529;BME280;7866;52.280;9.500;2023-05-16T05:37:55;100396.31;;;10.66;75.93
15529;BME280;7866;52.280;9.500;2023-05-16T05:42:57;100421.75;;;10.62;74.96
15529;BME280;7866;52.280;9.500;2023-05-16T05:48:00;100418.88;;;10.96;73.89
15529;BME280;7866;52.280;9.500;2023-05-16T05:53:01;100419.22;;;10.85;72.83
15529;BME280;7866;52.280;9.500;2023-05-16T05:58:03;100430.25;;;10.98;72.46
15529;BME280;7866;52.280;9.500;2023-05-16T06:03:06;100437.28;;;10.99;72.16
15529;BME280;7866;52.280;9.500;2023-05-16T06:08:08;100443.16;;;10.87;72.19
15529;BME280;7866;52.280;9.500;2023-05-16T06:13:10;100457.22;;;10.80;71.75
15529;BME280;7866;52.280;9.500;2023-05-16T06:18:13;100467.09;;;10.96;70.92
15529;BME280;7866;52.280;9.500;2023-05-16T06:23:15;100460.75;;;10.89;69.47
15529;BME280;7866;52.280;9.500;2023-05-16T06:28:16;100471.53;;;11.45;68.43
15529;BME280;7866;52.280;9.500;2023-05-16T06:33:19;100484.00;;;11.21;67.46
15529;BME280;7866;52.280;9.500;2023-05-16T06:38:21;100493.03;;;11.20;67.86
15529;BME280;7866;52.280;9.500;2023-05-16T06:43:22;100486.56;;;11.70;67.43
15529;BME280;7866;52.280;9.500;2023-05-16T06:48:25;100481.78;;;12.05;65.69
15529;BME280;7866;52.280;9.500;2023-05-16T06:53:27;100487.78;;;12.07;64.93
15529;BME280;7866;52.280;9.500;2023-05-16T06:58:29;100487.69;;;12.77;63.58
15529;BME280;7866;52.280;9.500;2023-05-16T07:03:32;100502.72;;;13.10;61.73
15529;BME280;7866;52.280;9.500;2023-05-16T07:08:33;100490.66;;;13.88;61.56
15529;BME280;7866;52.280;9.500;2023-05-16T07:13:36;100501.22;;;13.30;62.81
15529;BME280;7866;52.280;9.500;2023-05-16T07:18:39;100509.66;;;12.58;64.23
15529;BME280;7866;52.280;9.500;2023-05-16T07:23:40;100510.84;;;13.01;63.42
15529;BME280;7866;52.280;9.500;2023-05-16T07:28:42;100504.16;;;12.97;62.58
15529;BME280;7866;52.280;9.500;2023-05-16T07:33:45;100505.69;;;13.38;60.55
15529;BME280;7866;52.280;9.500;2023-05-16T07:38:48;100508.53;;;12.98;62.28
15529;BME280;7866;52.280;9.500;2023-05-16T07:43:49;100524.16;;;12.49;63.31
15529;BME280;7866;52.280;9.500;2023-05-16T07:48:52;100521.25;;;12.58;64.60
15529;BME280;7866;52.280;9.500;2023-05-16T07:53:54;100507.22;;;12.71;63.89
15529;BME280;7866;52.280;9.500;2023-05-16T07:58:56;100517.19;;;12.86;63.76
15529;BME280;7866;52.280;9.500;2023-05-16T08:03:59;100517.19;;;12.86;62.17
15529;BME280;7866;52.280;9.500;2023-05-16T08:09:00;100534.03;;;12.79;60.35
15529;BME280;7866;52.280;9.500;2023-05-16T08:14:02;100533.44;;;12.92;61.23
15529;BME280;7866;52.280;9.500;2023-05-16T08:19:05;100523.69;;;13.52;59.35
15529;BME280;7866;52.280;9.500;2023-05-16T08:24:07;100536.00;;;13.31;59.48
15529;BME280;7866;52.280;9.500;2023-05-16T08:29:10;100531.41;;;13.99;58.08
15529;BME280;7866;52.280;9.500;2023-05-16T08:34:13;100539.34;;;13.34;59.64
15529;BME280;7866;52.280;9.500;2023-05-16T08:39:15;100530.38;;;14.15;57.81
15529;BME280;7866;52.280;9.500;2023-05-16T08:44:16;100519.78;;;14.14;56.55
15529;BME280;7866;52.280;9.500;2023-05-16T08:49:24;100522.69;;;13.68;54.46
15529;BME280;7866;52.280;9.500;2023-05-16T08:54:28;100520.94;;;14.98;56.25
15529;BME280;7866;52.280;9.500;2023-05-16T08:59:30;100516.75;;;13.72;57.43
15529;BME280;7866;52.280;9.500;2023-05-16T09:04:34;100530.03;;;13.89;56.84
15529;BME280;7866;52.280;9.500;2023-05-16T09:09:37;100524.91;;;13.79;58.24
15529;BME280;7866;52.280;9.500;2023-05-16T09:14:39;100519.13;;;14.12;56.83
15529;BME280;7866;52.280;9.500;2023-05-16T09:19:42;100525.19;;;14.65;54.62
15529;BME280;7866;52.280;9.500;2023-05-16T09:24:44;100514.41;;;14.86;53.37
15529;BME280;7866;52.280;9.500;2023-05-16T09:29:49;100520.72;;;14.21;53.60
15529;BME280;7866;52.280;9.500;2023-05-16T09:34:53;100517.47;;;14.62;52.51
15529;BME280;7866;52.280;9.500;2023-05-16T09:39:57;100506.19;;;14.37;52.96
15529;BME280;7866;52.280;9.500;2023-05-16T09:44:59;100516.28;;;14.64;51.41
15529;BME280;7866;52.280;9.500;2023-05-16T09:50:02;100510.84;;;15.28;50.73
15529;BME280;7866;52.280;9.500;2023-05-16T09:55:06;100517.22;;;14.99;52.37
15529;BME280;7866;52.280;9.500;2023-05-16T10:00:10;100518.19;;;14.70;52.22
15529;BME280;7866;52.280;9.500;2023-05-16T10:05:13;100517.50;;;15.61;49.11
15529;BME280;7866;52.280;9.500;2023-05-16T10:10:17;100517.00;;;15.22;50.85
15529;BME280;7866;52.280;9.500;2023-05-16T10:15:19;100519.59;;;15.09;48.67
15529;BME280;7866;52.280;9.500;2023-05-16T10:20:22;100509.59;;;14.82;49.30
15529;BME280;7866;52.280;9.500;2023-05-16T10:25:28;100499.66;;;15.94;48.45
15529;BME280;7866;52.280;9.500;2023-05-16T10:30:32;100517.75;;;16.48;47.70
15529;BME280;7866;52.280;9.500;2023-05-16T10:35:36;100505.41;;;15.00;49.57
15529;BME280;7866;52.280;9.500;2023-05-16T10:40:38;100499.06;;;15.36;49.74
15529;BME280;7866;52.280;9.500;2023-05-16T10:45:40;100492.41;;;16.56;46.90
15529;BME280;7866;52.280;9.500;2023-05-16T10:50:45;100505.09;;;16.56;47.31
15529;BME280;7866;52.280;9.500;2023-05-16T10:56:04;100496.22;;;17.15;45.66
15529;BME280;7866;52.280;9.500;2023-05-16T11:01:25;100505.63;;;15.55;46.95
15529;BME280;7866;52.280;9.500;2023-05-16T11:06:31;100526.53;;;15.46;48.00
15529;BME280;7866;52.280;9.500;2023-05-16T11:11:41;100524.63;;;16.03;47.66
15529;BME280;7866;52.280;9.500;2023-05-16T11:16:47;100516.53;;;16.58;48.97
15529;BME280;7866;52.280;9.500;2023-05-16T11:22:07;100537.63;;;15.58;49.82
15529;BME280;7866;52.280;9.500;2023-05-16T11:27:11;100520.19;;;15.89;49.13
15529;BME280;7866;52.280;9.500;2023-05-16T11:32:18;100524.66;;;16.10;48.12
15529;BME280;7866;52.280;9.500;2023-05-16T11:37:22;100518.94;;;16.39;46.21
15529;BME280;7866;52.280;9.500;2023-05-16T11:42:24;100512.59;;;16.67;48.17
15529;BME280;7866;52.280;9.500;2023-05-16T11:47:25;100521.34;;;16.69;46.99
15529;BME280;7866;52.280;9.500;2023-05-16T11:52:47;100516.81;;;17.03;46.03
15529;BME280;7866;52.280;9.500;2023-05-16T11:57:50;100508.69;;;17.42;44.79
15529;BME280;7866;52.280;9.500;2023-05-16T12:02:54;100519.47;;;16.08;47.33
15529;BME280;7866;52.280;9.500;2023-05-16T12:08:02;100527.41;;;16.23;45.64
15529;BME280;7866;52.280;9.500;2023-05-16T12:13:04;100516.41;;;16.99;45.29
15529;BME280;7866;52.280;9.500;2023-05-16T12:18:06;100516.63;;;17.31;44.29
15529;BME280;7866;52.280;9.500;2023-05-16T12:23:11;100513.72;;;17.06;43.71
15529;BME280;7866;52.280;9.500;2023-05-16T12:28:13;100513.50;;;17.60;43.84
15529;BME280;7866;52.280;9.500;2023-05-16T12:33:15;100509.66;;;18.46;43.55
15529;BME280;7866;52.280;9.500;2023-05-16T12:38:19;100517.06;;;17.21;44.62
15529;BME280;7866;52.280;9.500;2023-05-16T12:43:22;100529.09;;;16.24;47.27
15529;BME280;7866;52.280;9.500;2023-05-16T12:48:30;100535.13;;;16.26;47.24
15529;BME280;7866;52.280;9.500;2023-05-16T12:53:40;100537.75;;;16.61;46.98
15529;BME280;7866;52.280;9.500;2023-05-16T12:58:42;100551.47;;;16.05;46.69
15529;BME280;7866;52.280;9.500;2023-05-16T13:03:43;100540.78;;;17.06;46.16
15529;BME280;7866;52.280;9.500;2023-05-16T13:08:46;100548.88;;;17.85;45.19
15529;BME280;7866;52.280;9.500;2023-05-16T13:13:48;100546.41;;;17.51;44.55
15529;BME280;7866;52.280;9.500;2023-05-16T13:18:50;100545.34;;;17.65;42.65
15529;BME280;7866;52.280;9.500;2023-05-16T13:23:53;100543.66;;;17.70;42.31
15529;BME280;7866;52.280;9.500;2023-05-16T13:28:54;100548.88;;;17.72;42.43
15529;BME280;7866;52.280;9.500;2023-05-16T13:33:56;100548.41;;;16.21;44.23
15529;BME280;7866;52.280;9.500;2023-05-16T13:38:59;100540.63;;;18.25;40.59
15529;BME280;7866;52.280;9.500;2023-05-16T13:44:01;100538.53;;;18.27;41.10
15529;BME280;7866;52.280;9.500;2023-05-16T13:49:02;100556.38;;;16.97;42.66
15529;BME280;7866;52.280;9.500;2023-05-16T13:54:05;100555.56;;;17.49;40.68
15529;BME280;7866;52.280;9.500;2023-05-16T13:59:07;100553.34;;;16.59;40.70
15529;BME280;7866;52.280;9.500;2023-05-16T14:04:09;100566.94;;;16.24;40.05
15529;BME280;7866;52.280;9.500;2023-05-16T14:09:12;100569.47;;;16.80;41.26
15529;BME280;7866;52.280;9.500;2023-05-16T14:14:14;100594.69;;;16.05;43.49
15529;BME280;7866;52.280;9.500;2023-05-16T14:19:16;100612.28;;;15.23;47.56
15529;BME280;7866;52.280;9.500;2023-05-16T14:24:19;100623.81;;;14.15;50.03
15529;BME280;7866;52.280;9.500;2023-05-16T14:29:20;100615.09;;;14.93;49.44
15529;BME280;7866;52.280;9.500;2023-05-16T14:34:22;100609.94;;;15.84;46.73
15529;BME280;7866;52.280;9.500;2023-05-16T14:39:25;100612.13;;;14.88;49.02
15529;BME280;7866;52.280;9.500;2023-05-16T14:44:27;100621.13;;;15.81;47.26
15529;BME280;7866;52.280;9.500;2023-05-16T14:49:29;100617.41;;;15.61;46.27
15529;BME280;7866;52.280;9.500;2023-05-16T14:54:34;100632.06;;;15.30;46.08
15529;BME280;7866;52.280;9.500;2023-05-16T14:59:36;100625.63;;;15.52;47.49
15529;BME280;7866;52.280;9.500;2023-05-16T15:04:37;100621.53;;;15.35;47.31
15529;BME280;7866;52.280;9.500;2023-05-16T15:09:40;100627.50;;;15.09;48.04
15529;BME280;7866;52.280;9.500;2023-05-16T15:14:42;100620.03;;;15.11;48.38
15529;BME280;7866;52.280;9.500;2023-05-16T15:19:44;100632.09;;;14.58;47.40
15529;BME280;7866;52.280;9.500;2023-05-16T15:24:48;100624.91;;;15.44;45.19
15529;BME280;7866;52.280;9.500;2023-05-16T15:29:50;100630.78;;;15.26;44.96
15529;BME280;7866;52.280;9.500;2023-05-16T15:34:52;100624.88;;;16.15;44.25
15529;BME280;7866;52.280;9.500;2023-05-16T15:39:55;100625.00;;;16.00;43.42
15529;BME280;7866;52.280;9.500;2023-05-16T15:44:56;100625.84;;;16.42;43.26
15529;BME280;7866;52.280;9.500;2023-05-16T15:49:58;100642.22;;;15.99;45.04
15529;BME280;7866;52.280;9.500;2023-05-16T15:55:01;100642.78;;;15.02;46.04
15529;BME280;7866;52.280;9.500;2023-05-16T16:00:04;100648.66;;;14.91;46.85
15529;BME280;7866;52.280;9.500;2023-05-16T16:05:06;100647.47;;;15.15;47.26
15529;BME280;7866;52.280;9.500;2023-05-16T16:10:11;100650.28;;;14.70;48.44
15529;BME280;7866;52.280;9.500;2023-05-16T16:15:12;100650.84;;;14.81;49.21
15529;BME280;7866;52.280;9.500;2023-05-16T16:20:14;100645.75;;;14.41;50.17
15529;BME280;7866;52.280;9.500;2023-05-16T16:25:17;100652.25;;;14.62;49.84
15529;BME280;7866;52.280;9.500;2023-05-16T16:30:19;100645.63;;;14.79;48.85
15529;BME280;7866;52.280;9.500;2023-05-16T16:35:21;100639.97;;;14.59;47.24
15529;BME280;7866;52.280;9.500;2023-05-16T16:40:26;100654.56;;;14.35;47.48
15529;BME280;7866;52.280;9.500;2023-05-16T16:45:28;100661.25;;;14.24;47.50
15529;BME280;7866;52.280;9.500;2023-05-16T16:50:29;100660.97;;;14.34;47.54
15529;BME280;7866;52.280;9.500;2023-05-16T16:55:33;100658.44;;;14.47;47.79
15529;BME280;7866;52.280;9.500;2023-05-16T17:00:36;100651.94;;;14.71;47.32
15529;BME280;7866;52.280;9.500;2023-05-16T17:05:37;100663.41;;;14.29;47.17
15529;BME280;7866;52.280;9.500;2023-05-16T17:10:40;100665.97;;;14.22;47.33
15529;BME280;7866;52.280;9.500;2023-05-16T17:15:42;100661.16;;;14.33;47.55
15529;BME280;7866;52.280;9.500;2023-05-16T17:20:44;100665.09;;;13.92;48.18
15529;BME280;7866;52.280;9.500;2023-05-16T17:25:47;100681.47;;;14.05;47.79
15529;BME280;7866;52.280;9.500;2023-05-16T17:30:49;100675.81;;;14.15;48.35
15529;BME280;7866;52.280;9.500;2023-05-16T17:35:51;100674.78;;;14.01;48.84
15529;BME280;7866;52.280;9.500;2023-05-16T17:40:54;100676.19;;;14.12;48.60
15529;BME280;7866;52.280;9.500;2023-05-16T17:45:56;100690.94;;;14.01;49.16
15529;BME280;7866;52.280;9.500;2023-05-16T17:50:57;100681.66;;;13.89;49.13
15529;BME280;7866;52.280;9.500;2023-05-16T17:56:02;100677.44;;;13.87;49.87
15529;BME280;7866;52.280;9.500;2023-05-16T18:01:03;100685.47;;;13.72;50.04
15529;BME280;7866;52.280;9.500;2023-05-16T18:06:07;100684.16;;;13.68;50.16
15529;BME280;7866;52.280;9.500;2023-05-16T18:11:11;100706.66;;;13.75;50.34
15529;BME280;7866;52.280;9.500;2023-05-16T18:16:13;100710.56;;;13.49;50.54
15529;BME280;7866;52.280;9.500;2023-05-16T18:21:15;100714.00;;;13.35;50.98
15529;BME280;7866;52.280;9.500;2023-05-16T18:26:18;100725.16;;;13.24;51.74
15529;BME280;7866;52.280;9.500;2023-05-16T18:31:19;100725.72;;;13.11;51.74
15529;BME280;7866;52.280;9.500;2023-05-16T18:36:21;100726.00;;;12.93;51.31
15529;BME280;7866;52.280;9.500;2023-05-16T18:41:24;100739.97;;;12.89;51.54
15529;BME280;7866;52.280;9.500;2023-05-16T18:46:26;100747.88;;;12.82;51.48
15529;BME280;7866;52.280;9.500;2023-05-16T18:51:27;100745.53;;;12.79;52.15
15529;BME280;7866;52.280;9.500;2023-05-16T18:56:31;100745.91;;;12.60;52.87
15529;BME280;7866;52.280;9.500;2023-05-16T19:01:33;100763.59;;;12.38;54.79
15529;BME280;7866;52.280;9.500;2023-05-16T19:06:35;100770.34;;;12.33;54.26
15529;BME280;7866;52.280;9.500;2023-05-16T19:11:38;100772.50;;;12.38;55.55
15529;BME280;7866;52.280;9.500;2023-05-16T19:16:39;100782.94;;;12.25;56.56
15529;BME280;7866;52.280;9.500;2023-05-16T19:21:41;100793.31;;;12.28;56.69
15529;BME280;7866;52.280;9.500;2023-05-16T19:26:44;100799.53;;;12.28;56.35
15529;BME280;7866;52.280;9.500;2023-05-16T19:31:46;100795.34;;;12.10;57.43
15529;BME280;7866;52.280;9.500;2023-05-16T19:36:48;100796.34;;;12.08;57.75
15529;BME280;7866;52.280;9.500;2023-05-16T19:41:51;100796.13;;;11.77;58.39
15529;BME280;7866;52.280;9.500;2023-05-16T19:46:54;100800.22;;;11.90;58.63
15529;BME280;7866;52.280;9.500;2023-05-16T19:51:55;100792.94;;;11.66;59.27
15529;BME280;7866;52.280;9.500;2023-05-16T19:56:58;100794.63;;;11.75;59.81
15529;BME280;7866;52.280;9.500;2023-05-16T20:02:00;100795.25;;;11.60;59.95
15529;BME280;7866;52.280;9.500;2023-05-16T20:07:03;100798.25;;;11.41;60.30
15529;BME280;7866;52.280;9.500;2023-05-16T20:12:08;100800.22;;;11.31;61.60
15529;BME280;7866;52.280;9.500;2023-05-16T20:17:10;100795.38;;;11.34;60.53
15529;BME280;7866;52.280;9.500;2023-05-16T20:22:11;100798.38;;;11.40;61.27
15529;BME280;7866;52.280;9.500;2023-05-16T20:27:14;100806.44;;;11.40;61.11
15529;BME280;7866;52.280;9.500;2023-05-16T20:32:16;100803.72;;;11.31;62.88
15529;BME280;7866;52.280;9.500;2023-05-16T20:37:18;100809.59;;;11.27;61.89
15529;BME280;7866;52.280;9.500;2023-05-16T20:42:21;100813.28;;;11.26;62.88
15529;BME280;7866;52.280;9.500;2023-05-16T20:47:23;100799.16;;;11.16;62.20
15529;BME280;7866;52.280;9.500;2023-05-16T20:52:24;100801.19;;;11.22;63.33
15529;BME280;7866;52.280;9.500;2023-05-16T20:57:28;100808.00;;;11.08;64.01
15529;BME280;7866;52.280;9.500;2023-05-16T21:02:30;100810.84;;;11.06;64.83
15529;BME280;7866;52.280;9.500;2023-05-16T21:07:31;100797.66;;;11.13;63.24
15529;BME280;7866;52.280;9.500;2023-05-16T21:12:34;100810.00;;;11.06;65.26
15529;BME280;7866;52.280;9.500;2023-05-16T21:17:36;100801.16;;;11.14;63.67
15529;BME280;7866;52.280;9.500;2023-05-16T21:22:38;100801.22;;;10.96;65.17
15529;BME280;7866;52.280;9.500;2023-05-16T21:27:41;100794.38;;;10.93;64.89
15529;BME280;7866;52.280;9.500;2023-05-16T21:32:43;100804.06;;;10.86;66.10
15529;BME280;7866;52.280;9.500;2023-05-16T21:37:44;100802.34;;;10.85;66.11
15529;BME280;7866;52.280;9.500;2023-05-16T21:42:47;100808.41;;;10.87;66.41
15529;BME280;7866;52.280;9.500;2023-05-16T21:47:49;100808.56;;;10.85;66.39
15529;BME280;7866;52.280;9.500;2023-05-16T21:52:50;100819.00;;;10.97;65.95
15529;BME280;7866;52.280;9.500;2023-05-16T21:57:53;100809.31;;;10.70;65.12
15529;BME280;7866;52.280;9.500;2023-05-16T22:02:55;100807.78;;;10.67;65.36
15529;BME280;7866;52.280;9.500;2023-05-16T22:07:57;100822.31;;;10.65;66.86
15529;BME280;7866;52.280;9.500;2023-05-16T22:13:00;100822.72;;;10.70;66.49
15529;BME280;7866;52.280;9.500;2023-05-16T22:18:01;100816.25;;;10.54;66.92
15529;BME280;7866;52.280;9.500;2023-05-16T22:23:03;100811.09;;;10.61;68.09
15529;BME280;7866;52.280;9.500;2023-05-16T22:28:06;100818.28;;;10.60;67.37
15529;BME280;7866;52.280;9.500;2023-05-16T22:33:25;100818.94;;;10.54;68.55
15529;BME280;7866;52.280;9.500;2023-05-16T22:38:27;100828.09;;;10.52;69.12
15529;BME280;7866;52.280;9.500;2023-05-16T22:43:30;100823.38;;;10.46;68.18
15529;BME280;7866;52.280;9.500;2023-05-16T22:48:31;100823.94;;;10.31;69.30
15529;BME280;7866;52.280;9.500;2023-05-16T22:53:33;100832.44;;;10.27;70.31
15529;BME280;7866;52.280;9.500;2023-05-16T22:58:36;100828.47;;;10.31;69.96
15529;BME280;7866;52.280;9.500;2023-05-16T23:03:38;100827.25;;;10.25;70.25
15529;BME280;7866;52.280;9.500;2023-05-16T23:08:39;100827.53;;;10.22;69.77
15529;BME280;7866;52.280;9.500;2023-05-16T23:13:43;100822.66;;;10.18;69.59
15529;BME280;7866;52.280;9.500;2023-05-16T23:18:44;100826.69;;;10.22;69.72
15529;BME280;7866;52.280;9.500;2023-05-16T23:23:46;100824.63;;;10.16;69.66
15529;BME280;7866;52.280;9.500;2023-05-16T23:28:49;100835.38;;;10.24;69.05
15529;BME280;7866;52.280;9.500;2023-05-16T23:33:50;100840.38;;;10.19;70.13
15529;BME280;7866;52.280;9.500;2023-05-16T23:38:52;100833.81;;;10.31;70.47
15529;BME280;7866;52.280;9.500;2023-05-16T23:43:55;100838.63;;;10.27;69.23
15529;BME280;7866;52.280;9.500;2023-05-16T23:48:56;100839.13;;;10.13;69.19
15529;BME280;7866;52.280;9.500;2023-05-16T23:53:58;100839.19;;;10.21;70.26
15529;BME280;7866;52.280;9.500;2023-05-16T23:59:01;100849.53;;;10.16;70.74
